sensor_id;sensor_type;location;lat;lon;timestamp;pressure;altitude;pressure_sealevel;temperature;humidity
39051;BME280;24805;55.852;37.644;2023-08-17T00:03:11;100110.69;;;21.12;57.89
39051;BME280;24805;55.852;37.644;2023-08-17T00:08:13;100101.88;;;21.05;58.23
39051;BME280;24805;55.852;37.644;2023-08-17T00:13:15;100107.34;;;20.98;58.91
39051;BME280;24805;55.852;37.644;2023-08-17T00:18:18;100108.31;;;20.92;58.77
39051;BME280;24805;55.852;37.644;2023-08-17T00:23:20;100120.81;;;20.87;59.16
39051;BME280;24805;55.852;37.644;2023-08-17T00:28:23;100124.19;;;20.82;59.04
39051;BME280;24805;55.852;37.644;2023-08-17T00:33:25;100118.78;;;20.71;59.22
39051;BME280;24805;55.852;37.644;2023-08-17T00:38:28;100132.84;;;20.73;59.46
39051;BME280;24805;55.852;37.644;2023-08-17T00:43:30;100123.66;;;20.62;59.54
39051;BME280;24805;55.852;37.644;2023-08-17T00:48:33;100141.03;;;20.66;59.97
39051;BME280;24805;55.852;37.644;2023-08-17T00:53:36;100126.22;;;20.57;59.92
39051;BME280;24805;55.852;37.644;2023-08-17T00:58:38;100133.94;;;20.53;60.32
39051;BME280;24805;55.852;37.644;2023-08-17T01:03:42;100145.41;;;20.49;60.72
39051;BME280;24805;55.852;37.644;2023-08-17T01:08:45;100136.34;;;20.43;60.73
39051;BME280;24805;55.852;37.644;2023-08-17T01:13:53;100138.97;;;20.50;60.94
39051;BME280;24805;55.852;37.644;2023-08-17T01:18:58;100140.97;;;20.36;61.04
39051;BME280;24805;55.852;37.644;2023-08-17T01:24:03;100125.88;;;20.35;61.05
39051;BME280;24805;55.852;37.644;2023-08-17T01:29:05;100139.41;;;20.28;61.17
39051;BME280;24805;55.852;37.644;2023-08-17T01:34:14;100140.59;;;20.33;61.46
39051;BME280;24805;55.852;37.644;2023-08-17T01:39:25;100142.69;;;20.30;61.54
39051;BME280;24805;55.852;37.644;2023-08-17T01:44:28;100137.94;;;20.14;61.49
39051;BME280;24805;55.852;37.644;2023-08-17T01:49:30;100132.97;;;20.11;61.64
39051;BME280;24805;55.852;37.644;2023-08-17T01:54:33;100141.72;;;20.07;62.00
39051;BME280;24805;55.852;37.644;2023-08-17T01:59:36;100134.69;;;20.06;62.16
39051;BME280;24805;55.852;37.644;2023-08-17T02:04:38;100143.81;;;20.05;62.01
39051;BME280;24805;55.852;37.644;2023-08-17T02:09:41;100134.91;;;20.04;61.86
39051;BME280;24805;55.852;37.644;2023-08-17T02:14:44;100135.53;;;20.06;61.75
39051;BME280;24805;55.852;37.644;2023-08-17T02:19:46;100149.38;;;20.10;61.79
39051;BME280;24805;55.852;37.644;2023-08-17T02:24:49;100144.59;;;20.12;61.60
39051;BME280;24805;55.852;37.644;2023-08-17T02:29:51;100157.59;;;20.15;61.53
39051;BME280;24805;55.852;37.644;2023-08-17T02:34:55;100153.66;;;20.17;61.69
39051;BME280;24805;55.852;37.644;2023-08-17T02:39:57;100150.03;;;20.23;61.56
39051;BME280;24805;55.852;37.644;2023-08-17T02:45:00;100142.94;;;20.29;61.36
39051;BME280;24805;55.852;37.644;2023-08-17T02:50:05;100147.00;;;20.38;61.15
39051;BME280;24805;55.852;37.644;2023-08-17T02:55:07;100154.31;;;20.49;60.67
39051;BME280;24805;55.852;37.644;2023-08-17T03:00:10;100157.53;;;20.58;60.65
39051;BME280;24805;55.852;37.644;2023-08-17T03:05:12;100162.38;;;20.68;60.23
39051;BME280;24805;55.852;37.644;2023-08-17T03:10:15;100160.19;;;20.76;60.20
39051;BME280;24805;55.852;37.644;2023-08-17T03:15:17;100156.94;;;20.86;60.08
39051;BME280;24805;55.852;37.644;2023-08-17T03:20:19;100162.59;;;20.96;59.61
39051;BME280;24805;55.852;37.644;2023-08-17T03:25:22;100157.91;;;21.03;59.41
39051;BME280;24805;55.852;37.644;2023-08-17T03:30:24;100164.88;;;21.11;59.04
39051;BME280;24805;55.852;37.644;2023-08-17T03:35:26;100157.25;;;21.19;59.18
39051;BME280;24805;55.852;37.644;2023-08-17T03:40:29;100156.50;;;21.30;58.48
39051;BME280;24805;55.852;37.644;2023-08-17T03:45:32;100161.09;;;21.42;58.23
39051;BME280;24805;55.852;37.644;2023-08-17T03:50:34;100168.38;;;21.53;58.11
39051;BME280;24805;55.852;37.644;2023-08-17T03:55:36;100163.22;;;21.63;57.54
39051;BME280;24805;55.852;37.644;2023-08-17T04:00:39;100161.59;;;21.74;57.43
39051;BME280;24805;55.852;37.644;2023-08-17T04:05:43;100161.56;;;21.85;57.61
39051;BME280;24805;55.852;37.644;2023-08-17T04:10:45;100160.75;;;21.96;57.01
39051;BME280;24805;55.852;37.644;2023-08-17T04:15:47;100169.47;;;22.10;56.91
39051;BME280;24805;55.852;37.644;2023-08-17T04:20:50;100173.53;;;22.24;56.41
39051;BME280;24805;55.852;37.644;2023-08-17T04:25:55;100176.25;;;22.36;55.95
39051;BME280;24805;55.852;37.644;2023-08-17T04:30:58;100173.25;;;22.49;55.67
39051;BME280;24805;55.852;37.644;2023-08-17T04:36:04;100175.91;;;22.61;55.34
39051;BME280;24805;55.852;37.644;2023-08-17T04:41:07;100181.66;;;22.76;54.90
39051;BME280;24805;55.852;37.644;2023-08-17T04:46:09;100181.72;;;22.93;55.08
39051;BME280;24805;55.852;37.644;2023-08-17T04:51:12;100179.28;;;23.08;54.66
39051;BME280;24805;55.852;37.644;2023-08-17T04:56:17;100168.78;;;23.12;53.00
39051;BME280;24805;55.852;37.644;2023-08-17T05:01:20;100185.63;;;23.30;52.30
39051;BME280;24805;55.852;37.644;2023-08-17T05:06:23;100184.16;;;23.40;51.64
39051;BME280;24805;55.852;37.644;2023-08-17T05:11:25;100191.66;;;23.66;51.25
39051;BME280;24805;55.852;37.644;2023-08-17T05:16:27;100171.97;;;24.48;49.82
39051;BME280;24805;55.852;37.644;2023-08-17T05:21:31;100181.81;;;26.46;45.77
39051;BME280;24805;55.852;37.644;2023-08-17T05:26:33;100181.41;;;28.31;42.15
39051;BME280;24805;55.852;37.644;2023-08-17T05:31:36;100185.28;;;29.58;39.86
39051;BME280;24805;55.852;37.644;2023-08-17T05:36:43;100192.88;;;30.90;36.62
39051;BME280;24805;55.852;37.644;2023-08-17T05:41:45;100190.00;;;31.70;34.72
39051;BME280;24805;55.852;37.644;2023-08-17T05:46:47;100182.50;;;32.85;32.18
39051;BME280;24805;55.852;37.644;2023-08-17T05:51:50;100194.25;;;33.80;30.21
39051;BME280;24805;55.852;37.644;2023-08-17T05:56:52;100194.50;;;34.89;28.88
39051;BME280;24805;55.852;37.644;2023-08-17T06:01:55;100183.25;;;35.63;27.88
39051;BME280;24805;55.852;37.644;2023-08-17T06:06:57;100189.59;;;36.57;26.42
39051;BME280;24805;55.852;37.644;2023-08-17T06:11:59;100184.97;;;37.32;24.42
39051;BME280;24805;55.852;37.644;2023-08-17T06:17:01;100178.28;;;37.66;23.68
39051;BME280;24805;55.852;37.644;2023-08-17T06:22:03;100174.34;;;38.24;22.77
39051;BME280;24805;55.852;37.644;2023-08-17T06:27:05;100175.00;;;38.70;22.99
39051;BME280;24805;55.852;37.644;2023-08-17T06:32:07;100173.50;;;39.41;21.65
39051;BME280;24805;55.852;37.644;2023-08-17T06:37:10;100178.97;;;40.44;21.13
39051;BME280;24805;55.852;37.644;2023-08-17T06:42:12;100159.94;;;41.39;19.60
39051;BME280;24805;55.852;37.644;2023-08-17T06:47:14;100167.75;;;41.98;19.28
39051;BME280;24805;55.852;37.644;2023-08-17T06:52:16;100158.13;;;42.15;18.63
39051;BME280;24805;55.852;37.644;2023-08-17T06:57:19;100163.06;;;43.11;17.76
39051;BME280;24805;55.852;37.644;2023-08-17T07:02:23;100167.69;;;44.11;16.68
39051;BME280;24805;55.852;37.644;2023-08-17T07:07:26;100163.19;;;44.58;16.22
39051;BME280;24805;55.852;37.644;2023-08-17T07:12:29;100153.16;;;45.47;15.06
39051;BME280;24805;55.852;37.644;2023-08-17T07:17:31;100161.22;;;45.59;15.34
39051;BME280;24805;55.852;37.644;2023-08-17T07:22:33;100158.38;;;46.52;14.12
39051;BME280;24805;55.852;37.644;2023-08-17T07:27:36;100160.59;;;46.99;14.11
39051;BME280;24805;55.852;37.644;2023-08-17T07:32:38;100153.72;;;47.77;13.73
39051;BME280;24805;55.852;37.644;2023-08-17T07:37:41;100156.03;;;48.34;12.45
39051;BME280;24805;55.852;37.644;2023-08-17T07:42:46;100159.31;;;48.29;12.60
39051;BME280;24805;55.852;37.644;2023-08-17T07:47:48;100144.41;;;48.70;12.10
39051;BME280;24805;55.852;37.644;2023-08-17T07:52:51;100150.28;;;49.13;12.06
39051;BME280;24805;55.852;37.644;2023-08-17T07:57:53;100145.28;;;50.24;10.91
39051;BME280;24805;55.852;37.644;2023-08-17T08:02:55;100139.81;;;50.96;10.17
39051;BME280;24805;55.852;37.644;2023-08-17T08:07:57;100141.53;;;50.08;10.71
39051;BME280;24805;55.852;37.644;2023-08-17T08:12:59;100147.91;;;49.38;11.77
39051;BME280;24805;55.852;37.644;2023-08-17T08:18:02;100139.69;;;49.97;10.88
39051;BME280;24805;55.852;37.644;2023-08-17T08:23:04;100136.53;;;51.34;9.80
39051;BME280;24805;55.852;37.644;2023-08-17T08:28:06;100125.50;;;51.72;9.72
39051;BME280;24805;55.852;37.644;2023-08-17T08:33:09;100128.09;;;52.70;9.47
39051;BME280;24805;55.852;37.644;2023-08-17T08:38:11;100128.47;;;53.22;8.59
39051;BME280;24805;55.852;37.644;2023-08-17T08:43:17;100128.03;;;53.37;8.55
39051;BME280;24805;55.852;37.644;2023-08-17T08:48:22;100121.91;;;53.98;7.39
39051;BME280;24805;55.852;37.644;2023-08-17T08:53:31;100117.50;;;54.31;7.87
39051;BME280;24805;55.852;37.644;2023-08-17T08:58:38;100122.22;;;54.13;7.51
39051;BME280;24805;55.852;37.644;2023-08-17T09:03:41;100118.47;;;54.59;7.60
39051;BME280;24805;55.852;37.644;2023-08-17T09:08:44;100111.16;;;55.11;7.25
39051;BME280;24805;55.852;37.644;2023-08-17T09:13:47;100101.38;;;53.59;8.12
39051;BME280;24805;55.852;37.644;2023-08-17T09:18:54;100100.94;;;53.95;7.34
39051;BME280;24805;55.852;37.644;2023-08-17T09:23:56;100102.69;;;54.15;7.60
39051;BME280;24805;55.852;37.644;2023-08-17T09:29:16;100109.16;;;54.15;8.09
39051;BME280;24805;55.852;37.644;2023-08-17T09:34:19;100110.00;;;53.18;8.42
39051;BME280;24805;55.852;37.644;2023-08-17T09:39:21;100106.38;;;53.43;7.80
39051;BME280;24805;55.852;37.644;2023-08-17T09:44:23;100094.88;;;53.72;8.05
39051;BME280;24805;55.852;37.644;2023-08-17T09:49:25;100095.41;;;54.14;7.67
39051;BME280;24805;55.852;37.644;2023-08-17T09:54:30;100100.00;;;54.55;7.81
39051;BME280;24805;55.852;37.644;2023-08-17T09:59:33;100090.28;;;54.96;7.48
39051;BME280;24805;55.852;37.644;2023-08-17T10:04:41;100095.44;;;55.28;7.19
39051;BME280;24805;55.852;37.644;2023-08-17T10:09:49;100095.69;;;55.52;7.07
39051;BME280;24805;55.852;37.644;2023-08-17T10:14:59;100093.00;;;55.76;6.93
39051;BME280;24805;55.852;37.644;2023-08-17T10:20:07;100093.50;;;55.84;6.97
39051;BME280;24805;55.852;37.644;2023-08-17T10:25:09;100077.66;;;55.64;6.24
39051;BME280;24805;55.852;37.644;2023-08-17T10:30:13;100079.50;;;55.40;7.24
39051;BME280;24805;55.852;37.644;2023-08-17T10:35:15;100082.09;;;55.07;7.11
39051;BME280;24805;55.852;37.644;2023-08-17T10:40:25;100088.13;;;55.86;7.19
39051;BME280;24805;55.852;37.644;2023-08-17T10:45:33;100079.44;;;55.80;6.51
39051;BME280;24805;55.852;37.644;2023-08-17T10:50:40;100069.78;;;55.78;5.93
39051;BME280;24805;55.852;37.644;2023-08-17T10:55:45;100077.53;;;55.95;6.33
39051;BME280;24805;55.852;37.644;2023-08-17T11:00:54;100073.28;;;55.91;6.60
39051;BME280;24805;55.852;37.644;2023-08-17T11:05:57;100057.63;;;55.86;6.92
39051;BME280;24805;55.852;37.644;2023-08-17T11:11:13;100065.53;;;56.10;6.29
39051;BME280;24805;55.852;37.644;2023-08-17T11:16:16;100057.22;;;58.10;5.46
39051;BME280;24805;55.852;37.644;2023-08-17T11:21:21;100048.59;;;55.79;7.04
39051;BME280;24805;55.852;37.644;2023-08-17T11:26:23;100040.78;;;55.15;7.18
39051;BME280;24805;55.852;37.644;2023-08-17T11:31:26;100044.44;;;54.10;7.95
39051;BME280;24805;55.852;37.644;2023-08-17T11:36:28;100034.50;;;53.71;7.69
39051;BME280;24805;55.852;37.644;2023-08-17T11:41:30;100026.69;;;53.62;8.16
39051;BME280;24805;55.852;37.644;2023-08-17T11:46:34;100027.94;;;53.27;8.31
39051;BME280;24805;55.852;37.644;2023-08-17T11:51:36;100020.16;;;52.93;8.56
39051;BME280;24805;55.852;37.644;2023-08-17T11:56:44;100018.53;;;53.05;8.34
39051;BME280;24805;55.852;37.644;2023-08-17T12:01:48;100016.00;;;53.19;8.23
39051;BME280;24805;55.852;37.644;2023-08-17T12:06:50;100011.47;;;52.33;8.61
39051;BME280;24805;55.852;37.644;2023-08-17T12:11:59;100007.19;;;52.66;8.29
39051;BME280;24805;55.852;37.644;2023-08-17T12:17:02;100013.38;;;51.78;8.37
39051;BME280;24805;55.852;37.644;2023-08-17T12:22:04;99998.56;;;51.58;8.86
39051;BME280;24805;55.852;37.644;2023-08-17T12:27:07;99994.38;;;51.01;8.97
39051;BME280;24805;55.852;37.644;2023-08-17T12:32:10;99988.41;;;50.63;9.50
39051;BME280;24805;55.852;37.644;2023-08-17T12:37:12;99983.28;;;49.79;9.47
39051;BME280;24805;55.852;37.644;2023-08-17T12:42:14;99977.28;;;49.57;9.85
39051;BME280;24805;55.852;37.644;2023-08-17T12:47:17;99982.94;;;49.33;10.45
39051;BME280;24805;55.852;37.644;2023-08-17T12:52:19;99969.72;;;48.77;10.59
39051;BME280;24805;55.852;37.644;2023-08-17T12:57:21;99983.06;;;48.12;11.52
39051;BME280;24805;55.852;37.644;2023-08-17T13:02:23;99980.09;;;47.92;10.73
39051;BME280;24805;55.852;37.644;2023-08-17T13:07:26;99980.06;;;47.54;11.77
39051;BME280;24805;55.852;37.644;2023-08-17T13:12:28;99975.34;;;46.92;12.13
39051;BME280;24805;55.852;37.644;2023-08-17T13:17:31;99982.44;;;46.45;12.08
39051;BME280;24805;55.852;37.644;2023-08-17T13:22:33;99974.56;;;46.08;12.44
39051;BME280;24805;55.852;37.644;2023-08-17T13:27:35;99969.06;;;45.76;12.72
39051;BME280;24805;55.852;37.644;2023-08-17T13:32:37;99976.69;;;45.33;13.87
39051;BME280;24805;55.852;37.644;2023-08-17T13:37:41;99978.63;;;44.76;13.45
39051;BME280;24805;55.852;37.644;2023-08-17T13:42:43;99978.69;;;43.96;14.19
39051;BME280;24805;55.852;37.644;2023-08-17T13:47:45;99981.00;;;43.28;14.47
39051;BME280;24805;55.852;37.644;2023-08-17T13:52:48;99976.66;;;42.23;15.36
39051;BME280;24805;55.852;37.644;2023-08-17T13:57:50;99966.13;;;41.31;16.79
39051;BME280;24805;55.852;37.644;2023-08-17T14:02:54;99978.66;;;40.02;17.47
39051;BME280;24805;55.852;37.644;2023-08-17T14:07:57;99978.69;;;38.76;18.83
39051;BME280;24805;55.852;37.644;2023-08-17T14:12:59;99986.78;;;37.40;20.58
39051;BME280;24805;55.852;37.644;2023-08-17T14:18:01;99982.06;;;36.29;21.17
39051;BME280;24805;55.852;37.644;2023-08-17T14:23:04;99981.50;;;35.35;22.44
39051;BME280;24805;55.852;37.644;2023-08-17T14:28:06;99988.44;;;34.69;23.35
39051;BME280;24805;55.852;37.644;2023-08-17T14:33:09;99982.91;;;34.26;23.97
39051;BME280;24805;55.852;37.644;2023-08-17T14:38:12;99988.69;;;33.81;24.38
39051;BME280;24805;55.852;37.644;2023-08-17T14:43:15;99986.00;;;33.50;25.10
39051;BME280;24805;55.852;37.644;2023-08-17T14:48:17;99987.69;;;33.29;25.37
39051;BME280;24805;55.852;37.644;2023-08-17T14:53:23;99990.13;;;33.08;25.61
39051;BME280;24805;55.852;37.644;2023-08-17T14:58:25;99992.72;;;32.82;26.52
39051;BME280;24805;55.852;37.644;2023-08-17T15:03:28;99970.50;;;32.47;26.74
39051;BME280;24805;55.852;37.644;2023-08-17T15:08:30;99984.59;;;32.32;27.19
39051;BME280;24805;55.852;37.644;2023-08-17T15:13:32;99988.38;;;32.09;27.35
39051;BME280;24805;55.852;37.644;2023-08-17T15:18:34;99990.66;;;31.93;28.01
39051;BME280;24805;55.852;37.644;2023-08-17T15:23:37;99979.59;;;31.84;27.94
39051;BME280;24805;55.852;37.644;2023-08-17T15:28:40;99995.66;;;31.77;28.42
39051;BME280;24805;55.852;37.644;2023-08-17T15:33:42;99991.88;;;31.60;29.12
39051;BME280;24805;55.852;37.644;2023-08-17T15:38:45;99963.66;;;31.32;29.26
39051;BME280;24805;55.852;37.644;2023-08-17T15:43:47;99988.13;;;31.28;30.50
39051;BME280;24805;55.852;37.644;2023-08-17T15:48:49;99992.53;;;31.10;30.87
39051;BME280;24805;55.852;37.644;2023-08-17T15:53:51;99982.97;;;30.94;31.00
39051;BME280;24805;55.852;37.644;2023-08-17T15:58:53;99974.00;;;30.75;31.42
39051;BME280;24805;55.852;37.644;2023-08-17T16:03:56;99978.44;;;30.52;31.20
39051;BME280;24805;55.852;37.644;2023-08-17T16:08:58;99981.44;;;30.37;31.96
39051;BME280;24805;55.852;37.644;2023-08-17T16:14:00;99991.03;;;30.15;32.51
39051;BME280;24805;55.852;37.644;2023-08-17T16:19:03;100004.16;;;29.95;32.85
39051;BME280;24805;55.852;37.644;2023-08-17T16:24:06;100004.03;;;29.81;32.69
39051;BME280;24805;55.852;37.644;2023-08-17T16:29:08;99992.09;;;29.53;33.57
39051;BME280;24805;55.852;37.644;2023-08-17T16:34:10;100025.53;;;29.45;33.31
39051;BME280;24805;55.852;37.644;2023-08-17T16:39:12;100027.91;;;29.23;33.79
39051;BME280;24805;55.852;37.644;2023-08-17T16:44:15;100034.38;;;29.03;34.35
39051;BME280;24805;55.852;37.644;2023-08-17T16:49:17;100029.34;;;28.86;34.38
39051;BME280;24805;55.852;37.644;2023-08-17T16:54:19;100030.81;;;28.68;34.60
39051;BME280;24805;55.852;37.644;2023-08-17T16:59:21;100023.03;;;28.52;35.43
39051;BME280;24805;55.852;37.644;2023-08-17T17:04:24;100035.38;;;28.39;35.66
39051;BME280;24805;55.852;37.644;2023-08-17T17:09:26;100031.66;;;28.20;36.25
39051;BME280;24805;55.852;37.644;2023-08-17T17:14:28;100042.63;;;27.99;36.42
39051;BME280;24805;55.852;37.644;2023-08-17T17:19:30;100036.44;;;27.89;37.00
39051;BME280;24805;55.852;37.644;2023-08-17T17:24:32;100020.69;;;27.70;37.57
39051;BME280;24805;55.852;37.644;2023-08-17T17:29:35;100026.97;;;27.66;37.05
39051;BME280;24805;55.852;37.644;2023-08-17T17:34:37;100029.97;;;27.54;38.14
39051;BME280;24805;55.852;37.644;2023-08-17T17:39:39;100043.88;;;27.42;37.53
39051;BME280;24805;55.852;37.644;2023-08-17T17:44:41;100040.38;;;27.32;37.63
39051;BME280;24805;55.852;37.644;2023-08-17T17:49:43;100039.31;;;27.18;38.60
39051;BME280;24805;55.852;37.644;2023-08-17T17:54:46;100037.13;;;27.09;39.04
39051;BME280;24805;55.852;37.644;2023-08-17T17:59:48;100046.38;;;26.98;39.31
39051;BME280;24805;55.852;37.644;2023-08-17T18:04:52;100052.63;;;26.89;39.90
39051;BME280;24805;55.852;37.644;2023-08-17T18:09:54;100046.34;;;26.78;39.44
39051;BME280;24805;55.852;37.644;2023-08-17T18:14:57;100044.19;;;26.70;39.52
39051;BME280;24805;55.852;37.644;2023-08-17T18:20:00;100039.53;;;26.60;40.41
39051;BME280;24805;55.852;37.644;2023-08-17T18:25:04;100044.72;;;26.57;40.80
39051;BME280;24805;55.852;37.644;2023-08-17T18:30:07;100050.41;;;26.50;40.85
39051;BME280;24805;55.852;37.644;2023-08-17T18:35:10;100058.28;;;26.41;41.70
39051;BME280;24805;55.852;37.644;2023-08-17T18:40:12;100049.03;;;26.32;41.58
39051;BME280;24805;55.852;37.644;2023-08-17T18:45:14;100053.09;;;26.30;41.81
39051;BME280;24805;55.852;37.644;2023-08-17T18:50:19;100035.91;;;26.24;41.68
39051;BME280;24805;55.852;37.644;2023-08-17T18:55:21;100046.50;;;26.21;41.39
39051;BME280;24805;55.852;37.644;2023-08-17T19:00:24;100044.03;;;26.19;41.10
39051;BME280;24805;55.852;37.644;2023-08-17T19:05:26;100033.16;;;26.19;40.36
39051;BME280;24805;55.852;37.644;2023-08-17T19:10:28;100032.63;;;26.22;40.42
39051;BME280;24805;55.852;37.644;2023-08-17T19:15:30;100031.81;;;26.22;41.17
39051;BME280;24805;55.852;37.644;2023-08-17T19:20:33;100034.53;;;26.22;40.78
39051;BME280;24805;55.852;37.644;2023-08-17T19:25:35;100016.03;;;26.14;41.67
39051;BME280;24805;55.852;37.644;2023-08-17T19:30:37;100018.19;;;26.06;41.11
39051;BME280;24805;55.852;37.644;2023-08-17T19:35:40;100020.31;;;25.99;42.03
39051;BME280;24805;55.852;37.644;2023-08-17T19:40:42;100033.63;;;25.91;42.39
39051;BME280;24805;55.852;37.644;2023-08-17T19:45:46;100039.56;;;25.78;42.70
39051;BME280;24805;55.852;37.644;2023-08-17T19:50:48;100031.31;;;25.62;43.66
39051;BME280;24805;55.852;37.644;2023-08-17T19:55:51;100033.16;;;25.57;44.03
39051;BME280;24805;55.852;37.644;2023-08-17T20:00:53;100045.91;;;25.51;43.27
39051;BME280;24805;55.852;37.644;2023-08-17T20:05:56;100053.75;;;25.48;43.01
39051;BME280;24805;55.852;37.644;2023-08-17T20:10:58;100034.69;;;25.37;43.35
39051;BME280;24805;55.852;37.644;2023-08-17T20:16:00;100043.91;;;25.41;42.80
39051;BME280;24805;55.852;37.644;2023-08-17T20:21:02;100045.25;;;25.39;42.31
39051;BME280;24805;55.852;37.644;2023-08-17T20:26:06;100059.91;;;25.33;43.82
39051;BME280;24805;55.852;37.644;2023-08-17T20:31:08;100064.16;;;25.24;43.95
39051;BME280;24805;55.852;37.644;2023-08-17T20:36:10;100055.97;;;25.14;43.03
39051;BME280;24805;55.852;37.644;2023-08-17T20:41:12;100058.69;;;25.14;42.31
39051;BME280;24805;55.852;37.644;2023-08-17T20:46:14;100050.25;;;25.10;42.25
39051;BME280;24805;55.852;37.644;2023-08-17T20:51:17;100052.94;;;25.10;42.75
39051;BME280;24805;55.852;37.644;2023-08-17T20:56:19;100060.53;;;25.08;42.82
39051;BME280;24805;55.852;37.644;2023-08-17T21:01:22;100066.16;;;24.96;43.28
39051;BME280;24805;55.852;37.644;2023-08-17T21:06:24;100075.53;;;24.89;44.08
39051;BME280;24805;55.852;37.644;2023-08-17T21:11:26;100069.19;;;24.78;43.84
39051;BME280;24805;55.852;37.644;2023-08-17T21:16:28;100069.41;;;24.71;42.96
39051;BME280;24805;55.852;37.644;2023-08-17T21:21:31;100066.13;;;24.69;43.11
39051;BME280;24805;55.852;37.644;2023-08-17T21:26:33;100069.41;;;24.71;43.25
39051;BME280;24805;55.852;37.644;2023-08-17T21:31:36;100077.56;;;24.71;42.99
39051;BME280;24805;55.852;37.644;2023-08-17T21:36:38;100056.25;;;24.58;44.01
39051;BME280;24805;55.852;37.644;2023-08-17T21:41:40;100050.56;;;24.60;43.71
39051;BME280;24805;55.852;37.644;2023-08-17T21:46:42;100048.94;;;24.59;43.79
39051;BME280;24805;55.852;37.644;2023-08-17T21:51:45;100048.94;;;24.59;43.75
39051;BME280;24805;55.852;37.644;2023-08-17T21:56:47;100054.06;;;24.55;44.16
39051;BME280;24805;55.852;37.644;2023-08-17T22:01:49;100051.56;;;24.49;44.59
39051;BME280;24805;55.852;37.644;2023-08-17T22:06:52;100062.09;;;24.45;44.96
39051;BME280;24805;55.852;37.644;2023-08-17T22:11:55;100071.19;;;24.34;45.62
39051;BME280;24805;55.852;37.644;2023-08-17T22:16:57;100074.09;;;24.27;45.19
39051;BME280;24805;55.852;37.644;2023-08-17T22:21:59;100063.94;;;24.18;45.09
39051;BME280;24805;55.852;37.644;2023-08-17T22:27:02;100053.03;;;24.13;45.61
39051;BME280;24805;55.852;37.644;2023-08-17T22:32:04;100059.78;;;24.10;45.60
39051;BME280;24805;55.852;37.644;2023-08-17T22:37:06;100049.44;;;24.07;45.69
39051;BME280;24805;55.852;37.644;2023-08-17T22:42:08;100058.06;;;24.04;45.95
39051;BME280;24805;55.852;37.644;2023-08-17T22:47:10;100049.13;;;24.03;45.42
39051;BME280;24805;55.852;37.644;2023-08-17T22:52:13;100054.78;;;24.02;45.27
39051;BME280;24805;55.852;37.644;2023-08-17T22:57:15;100055.09;;;24.05;45.04
39051;BME280;24805;55.852;37.644;2023-08-17T23:02:17;100058.56;;;24.01;45.37
39051;BME280;24805;55.852;37.644;2023-08-17T23:07:19;100066.66;;;23.96;46.08
39051;BME280;24805;55.852;37.644;2023-08-17T23:12:21;100067.66;;;23.90;47.16
39051;BME280;24805;55.852;37.644;2023-08-17T23:17:23;100074.06;;;23.84;46.39
39051;BME280;24805;55.852;37.644;2023-08-17T23:22:26;100072.69;;;23.81;46.59
39051;BME280;24805;55.852;37.644;2023-08-17T23:27:28;100081.88;;;23.80;46.74
39051;BME280;24805;55.852;37.644;2023-08-17T23:32:30;100097.00;;;23.76;47.62
39051;BME280;24805;55.852;37.644;2023-08-17T23:37:33;100101.53;;;23.70;48.77
39051;BME280;24805;55.852;37.644;2023-08-17T23:42:35;100104.66;;;23.62;48.81
39051;BME280;24805;55.852;37.644;2023-08-17T23:47:37;100115.09;;;23.54;49.13
39051;BME280;24805;55.852;37.644;2023-08-17T23:52:40;100116.88;;;23.48;49.36
39051;BME280;24805;55.852;37.644;2023-08-17T23:57:42;100127.13;;;23.46;49.60
